sensor_id;sensor_type;location;lat;lon;timestamp;pressure;altitude;pressure_sealevel;temperature;humidity
5954;BME280;3002;42.642;24.812;2022-12-29T00:00:53;97473.44;;;8.48;90.79
5954;BME280;3002;42.642;24.812;2022-12-29T00:03:18;97508.50;;;8.96;89.65
5954;BME280;3002;42.642;24.812;2022-12-29T00:05:43;97521.00;;;9.12;88.15
5954;BME280;3002;42.642;24.812;2022-12-29T00:08:09;97512.13;;;8.84;89.62
5954;BME280;3002;42.642;24.812;2022-12-29T00:10:34;97538.06;;;9.06;87.73
5954;BME280;3002;42.642;24.812;2022-12-29T00:13:00;97490.47;;;8.86;86.46
5954;BME280;3002;42.642;24.812;2022-12-29T00:15:44;97494.38;;;8.56;88.88
5954;BME280;3002;42.642;24.812;2022-12-29T00:18:09;97510.69;;;8.55;89.70
5954;BME280;3002;42.642;24.812;2022-12-29T00:20:36;97482.47;;;8.42;88.55
5954;BME280;3002;42.642;24.812;2022-12-29T00:23:20;97519.47;;;8.72;87.79
5954;BME280;3002;42.642;24.812;2022-12-29T00:26:12;97521.19;;;8.62;87.35
5954;BME280;3002;42.642;24.812;2022-12-29T00:28:57;97516.88;;;8.39;87.91
5954;BME280;3002;42.642;24.812;2022-12-29T00:31:41;97521.69;;;8.37;89.03
5954;BME280;3002;42.642;24.812;2022-12-29T00:34:25;97526.38;;;8.13;91.88
5954;BME280;3002;42.642;24.812;2022-12-29T00:37:09;97538.69;;;8.14;91.27
5954;BME280;3002;42.642;24.812;2022-12-29T00:39:34;97532.28;;;8.15;90.41
5954;BME280;3002;42.642;24.812;2022-12-29T00:42:18;97531.00;;;8.17;91.01
5954;BME280;3002;42.642;24.812;2022-12-29T00:45:03;97530.91;;;8.12;90.00
5954;BME280;3002;42.642;24.812;2022-12-29T00:47:28;97536.41;;;8.22;89.58
5954;BME280;3002;42.642;24.812;2022-12-29T00:49:54;97541.25;;;8.25;90.97
5954;BME280;3002;42.642;24.812;2022-12-29T00:52:19;97511.56;;;8.22;91.51
5954;BME280;3002;42.642;24.812;2022-12-29T00:54:45;97528.59;;;8.54;90.10
5954;BME280;3002;42.642;24.812;2022-12-29T00:57:10;97521.88;;;8.52;90.01
5954;BME280;3002;42.642;24.812;2022-12-29T00:59:38;97541.28;;;8.64;91.21
5954;BME280;3002;42.642;24.812;2022-12-29T01:02:05;97529.16;;;8.78;90.02
5954;BME280;3002;42.642;24.812;2022-12-29T01:04:31;97539.84;;;8.78;91.12
5954;BME280;3002;42.642;24.812;2022-12-29T01:06:57;97528.84;;;8.75;90.98
5954;BME280;3002;42.642;24.812;2022-12-29T01:09:22;97538.31;;;8.82;91.05
5954;BME280;3002;42.642;24.812;2022-12-29T01:12:08;97540.41;;;9.02;89.57
5954;BME280;3002;42.642;24.812;2022-12-29T01:14:34;97533.94;;;8.98;88.95
5954;BME280;3002;42.642;24.812;2022-12-29T01:16:59;97533.03;;;8.66;91.61
5954;BME280;3002;42.642;24.812;2022-12-29T01:19:25;97518.88;;;8.48;93.04
5954;BME280;3002;42.642;24.812;2022-12-29T01:21:50;97539.94;;;8.45;94.46
5954;BME280;3002;42.642;24.812;2022-12-29T01:24:17;97544.66;;;8.38;95.48
5954;BME280;3002;42.642;24.812;2022-12-29T01:26:43;97519.69;;;8.32;94.38
5954;BME280;3002;42.642;24.812;2022-12-29T01:29:08;97543.06;;;8.37;94.68
5954;BME280;3002;42.642;24.812;2022-12-29T01:31:34;97528.78;;;8.31;95.36
5954;BME280;3002;42.642;24.812;2022-12-29T01:34:00;97521.28;;;8.28;95.44
5954;BME280;3002;42.642;24.812;2022-12-29T01:36:26;97521.66;;;8.20;95.99
5954;BME280;3002;42.642;24.812;2022-12-29T01:38:52;97517.22;;;8.09;95.77
5954;BME280;3002;42.642;24.812;2022-12-29T01:41:17;97487.28;;;8.07;95.13
5954;BME280;3002;42.642;24.812;2022-12-29T01:43:49;97484.94;;;8.10;94.18
5954;BME280;3002;42.642;24.812;2022-12-29T01:49:08;97486.75;;;8.26;93.67
5954;BME280;3002;42.642;24.812;2022-12-29T01:51:44;97498.59;;;8.14;96.23
5954;BME280;3002;42.642;24.812;2022-12-29T01:54:16;97488.88;;;8.24;96.35
5954;BME280;3002;42.642;24.812;2022-12-29T01:56:45;97479.88;;;8.30;96.68
5954;BME280;3002;42.642;24.812;2022-12-29T01:59:16;97496.44;;;8.49;96.21
5954;BME280;3002;42.642;24.812;2022-12-29T02:01:44;97421.25;;;8.02;96.75
5954;BME280;3002;42.642;24.812;2022-12-29T02:04:11;97448.34;;;8.32;95.83
5954;BME280;3002;42.642;24.812;2022-12-29T02:06:42;97450.78;;;8.34;96.05
5954;BME280;3002;42.642;24.812;2022-12-29T02:09:11;97465.31;;;8.60;93.89
5954;BME280;3002;42.642;24.812;2022-12-29T02:11:37;97459.28;;;8.70;92.91
5954;BME280;3002;42.642;24.812;2022-12-29T02:14:11;97480.91;;;8.68;93.88
5954;BME280;3002;42.642;24.812;2022-12-29T02:22:30;97476.56;;;8.40;94.72
5954;BME280;3002;42.642;24.812;2022-12-29T02:25:14;97472.13;;;8.51;93.47
5954;BME280;3002;42.642;24.812;2022-12-29T02:27:52;97472.91;;;8.29;94.63
5954;BME280;3002;42.642;24.812;2022-12-29T02:33:30;97475.25;;;7.87;96.05
5954;BME280;3002;42.642;24.812;2022-12-29T02:36:01;97475.19;;;7.82;95.82
5954;BME280;3002;42.642;24.812;2022-12-29T02:44:15;97475.03;;;7.72;94.86
5954;BME280;3002;42.642;24.812;2022-12-29T02:46:49;97464.22;;;7.62;93.72
5954;BME280;3002;42.642;24.812;2022-12-29T02:49:25;97459.25;;;7.54;95.15
5954;BME280;3002;42.642;24.812;2022-12-29T02:52:01;97463.22;;;7.34;96.05
5954;BME280;3002;42.642;24.812;2022-12-29T02:54:27;97453.22;;;6.96;98.74
5954;BME280;3002;42.642;24.812;2022-12-29T02:57:32;97479.47;;;7.33;96.01
5954;BME280;3002;42.642;24.812;2022-12-29T03:05:22;97463.59;;;7.09;98.33
5954;BME280;3002;42.642;24.812;2022-12-29T03:11:02;97466.41;;;7.19;95.77
5954;BME280;3002;42.642;24.812;2022-12-29T03:13:33;97458.63;;;6.84;98.26
5954;BME280;3002;42.642;24.812;2022-12-29T03:16:24;97447.00;;;6.90;98.58
5954;BME280;3002;42.642;24.812;2022-12-29T03:19:10;97456.00;;;6.89;98.94
5954;BME280;3002;42.642;24.812;2022-12-29T03:22:07;97445.00;;;6.69;98.94
5954;BME280;3002;42.642;24.812;2022-12-29T03:24:56;97435.41;;;6.56;99.71
5954;BME280;3002;42.642;24.812;2022-12-29T03:27:27;97449.41;;;6.63;100.00
5954;BME280;3002;42.642;24.812;2022-12-29T03:29:58;97445.00;;;6.69;100.00
5954;BME280;3002;42.642;24.812;2022-12-29T03:32:32;97435.81;;;6.48;100.00
5954;BME280;3002;42.642;24.812;2022-12-29T03:34:58;97428.31;;;6.33;100.00
5954;BME280;3002;42.642;24.812;2022-12-29T03:37:32;97458.88;;;6.71;100.00
5954;BME280;3002;42.642;24.812;2022-12-29T03:40:00;97408.28;;;6.31;100.00
5954;BME280;3002;42.642;24.812;2022-12-29T03:42:28;97443.41;;;6.56;100.00
5954;BME280;3002;42.642;24.812;2022-12-29T03:44:56;97455.41;;;6.42;100.00
5954;BME280;3002;42.642;24.812;2022-12-29T03:47:23;97418.25;;;6.24;100.00
5954;BME280;3002;42.642;24.812;2022-12-29T03:49:49;97437.81;;;6.29;100.00
5954;BME280;3002;42.642;24.812;2022-12-29T03:52:15;97427.88;;;6.25;100.00
5954;BME280;3002;42.642;24.812;2022-12-29T03:54:41;97437.25;;;6.27;100.00
5954;BME280;3002;42.642;24.812;2022-12-29T03:57:07;97429.28;;;6.15;100.00
5954;BME280;3002;42.642;24.812;2022-12-29T03:59:33;97443.13;;;6.29;100.00
5954;BME280;3002;42.642;24.812;2022-12-29T04:01:58;97449.31;;;6.18;100.00
5954;BME280;3002;42.642;24.812;2022-12-29T04:04:24;97410.91;;;6.02;100.00
5954;BME280;3002;42.642;24.812;2022-12-29T04:06:49;97455.16;;;6.43;100.00
5954;BME280;3002;42.642;24.812;2022-12-29T04:09:15;97436.00;;;6.18;100.00
5954;BME280;3002;42.642;24.812;2022-12-29T04:11:40;97420.16;;;5.88;100.00
5954;BME280;3002;42.642;24.812;2022-12-29T04:14:06;97427.22;;;6.06;100.00
5954;BME280;3002;42.642;24.812;2022-12-29T04:16:31;97435.91;;;6.01;100.00
5954;BME280;3002;42.642;24.812;2022-12-29T04:18:58;97456.28;;;5.96;100.00
5954;BME280;3002;42.642;24.812;2022-12-29T04:21:24;97457.75;;;6.15;100.00
5954;BME280;3002;42.642;24.812;2022-12-29T04:23:49;97446.88;;;5.93;100.00
5954;BME280;3002;42.642;24.812;2022-12-29T04:26:15;97454.75;;;5.88;100.00
5954;BME280;3002;42.642;24.812;2022-12-29T04:28:40;97447.13;;;5.92;100.00
5954;BME280;3002;42.642;24.812;2022-12-29T04:31:05;97456.97;;;6.03;100.00
5954;BME280;3002;42.642;24.812;2022-12-29T04:33:31;97447.34;;;5.90;100.00
5954;BME280;3002;42.642;24.812;2022-12-29T04:35:56;97468.63;;;5.90;100.00
5954;BME280;3002;42.642;24.812;2022-12-29T04:38:23;97472.78;;;5.86;100.00
5954;BME280;3002;42.642;24.812;2022-12-29T04:40:50;97469.25;;;5.92;100.00
5954;BME280;3002;42.642;24.812;2022-12-29T04:43:16;97478.81;;;5.81;100.00
5954;BME280;3002;42.642;24.812;2022-12-29T04:45:45;97453.94;;;5.99;100.00
5954;BME280;3002;42.642;24.812;2022-12-29T04:48:11;97471.44;;;6.07;100.00
5954;BME280;3002;42.642;24.812;2022-12-29T04:50:38;97467.84;;;5.89;100.00
5954;BME280;3002;42.642;24.812;2022-12-29T04:53:03;97482.78;;;6.02;100.00
5954;BME280;3002;42.642;24.812;2022-12-29T04:55:30;97457.44;;;5.88;100.00
5954;BME280;3002;42.642;24.812;2022-12-29T04:57:56;97480.69;;;5.93;100.00
5954;BME280;3002;42.642;24.812;2022-12-29T05:00:23;97468.06;;;5.88;100.00
5954;BME280;3002;42.642;24.812;2022-12-29T05:02:48;97442.13;;;5.48;100.00
5954;BME280;3002;42.642;24.812;2022-12-29T05:05:14;97474.88;;;5.72;100.00
5954;BME280;3002;42.642;24.812;2022-12-29T05:07:40;97485.16;;;5.57;100.00
5954;BME280;3002;42.642;24.812;2022-12-29T05:10:06;97461.56;;;5.60;100.00
5954;BME280;3002;42.642;24.812;2022-12-29T05:12:34;97459.03;;;5.54;100.00
5954;BME280;3002;42.642;24.812;2022-12-29T05:15:00;97476.25;;;5.75;100.00
5954;BME280;3002;42.642;24.812;2022-12-29T05:20:42;97461.91;;;5.41;100.00
5954;BME280;3002;42.642;24.812;2022-12-29T05:23:08;97469.56;;;5.60;100.00
5954;BME280;3002;42.642;24.812;2022-12-29T05:25:33;97458.34;;;5.47;100.00
5954;BME280;3002;42.642;24.812;2022-12-29T05:27:59;97458.34;;;5.58;100.00
5954;BME280;3002;42.642;24.812;2022-12-29T05:30:24;97496.47;;;5.94;100.00
5954;BME280;3002;42.642;24.812;2022-12-29T05:32:50;97460.78;;;5.83;100.00
5954;BME280;3002;42.642;24.812;2022-12-29T05:35:15;97459.16;;;5.71;100.00
5954;BME280;3002;42.642;24.812;2022-12-29T05:37:41;97467.50;;;6.09;100.00
5954;BME280;3002;42.642;24.812;2022-12-29T05:40:07;97462.84;;;6.05;100.00
5954;BME280;3002;42.642;24.812;2022-12-29T05:42:33;97442.84;;;6.02;100.00
5954;BME280;3002;42.642;24.812;2022-12-29T05:44:58;97472.78;;;6.33;100.00
5954;BME280;3002;42.642;24.812;2022-12-29T05:47:23;97425.22;;;6.25;100.00
5954;BME280;3002;42.642;24.812;2022-12-29T05:49:49;97452.56;;;6.60;100.00
5954;BME280;3002;42.642;24.812;2022-12-29T05:52:46;97459.97;;;6.87;100.00
5954;BME280;3002;42.642;24.812;2022-12-29T05:55:12;97443.06;;;6.53;100.00
5954;BME280;3002;42.642;24.812;2022-12-29T05:57:38;97482.00;;;6.82;100.00
5954;BME280;3002;42.642;24.812;2022-12-29T06:00:05;97455.75;;;6.34;100.00
5954;BME280;3002;42.642;24.812;2022-12-29T06:02:31;97472.19;;;6.42;100.00
5954;BME280;3002;42.642;24.812;2022-12-29T06:04:56;97489.09;;;6.48;100.00
5954;BME280;3002;42.642;24.812;2022-12-29T06:07:22;97467.19;;;6.46;100.00
5954;BME280;3002;42.642;24.812;2022-12-29T06:09:47;97468.75;;;6.19;100.00
5954;BME280;3002;42.642;24.812;2022-12-29T06:12:12;97468.63;;;6.25;100.00
5954;BME280;3002;42.642;24.812;2022-12-29T06:14:38;97479.16;;;6.32;100.00
5954;BME280;3002;42.642;24.812;2022-12-29T06:17:03;97441.31;;;6.30;100.00
5954;BME280;3002;42.642;24.812;2022-12-29T06:19:29;97486.88;;;6.45;100.00
5954;BME280;3002;42.642;24.812;2022-12-29T06:21:54;97509.00;;;6.46;100.00
5954;BME280;3002;42.642;24.812;2022-12-29T06:24:20;97501.66;;;6.64;100.00
5954;BME280;3002;42.642;24.812;2022-12-29T06:26:46;97514.22;;;6.92;100.00
5954;BME280;3002;42.642;24.812;2022-12-29T06:29:11;97479.59;;;6.81;100.00
5954;BME280;3002;42.642;24.812;2022-12-29T06:31:38;97479.84;;;8.47;88.13
5954;BME280;3002;42.642;24.812;2022-12-29T06:34:04;97488.81;;;9.34;79.93
5954;BME280;3002;42.642;24.812;2022-12-29T06:36:29;97513.63;;;12.12;65.33
5954;BME280;3002;42.642;24.812;2022-12-29T06:38:55;97482.66;;;12.95;60.17
5954;BME280;3002;42.642;24.812;2022-12-29T06:41:20;97493.16;;;13.51;57.81
5954;BME280;3002;42.642;24.812;2022-12-29T06:43:46;97487.53;;;12.93;57.18
5954;BME280;3002;42.642;24.812;2022-12-29T06:46:11;97494.59;;;12.83;57.79
5954;BME280;3002;42.642;24.812;2022-12-29T06:48:37;97510.31;;;13.60;56.19
5954;BME280;3002;42.642;24.812;2022-12-29T06:51:03;97495.16;;;10.82;62.89
5954;BME280;3002;42.642;24.812;2022-12-29T06:53:28;97516.94;;;10.01;74.19
5954;BME280;3002;42.642;24.812;2022-12-29T06:55:54;97494.16;;;12.46;62.05
5954;BME280;3002;42.642;24.812;2022-12-29T06:58:19;97497.31;;;12.78;58.64
5954;BME280;3002;42.642;24.812;2022-12-29T07:00:45;97491.88;;;14.06;55.28
5954;BME280;3002;42.642;24.812;2022-12-29T07:03:10;97491.75;;;14.22;54.87
5954;BME280;3002;42.642;24.812;2022-12-29T07:05:36;97486.88;;;14.53;52.99
5954;BME280;3002;42.642;24.812;2022-12-29T07:08:01;97506.66;;;15.10;51.84
5954;BME280;3002;42.642;24.812;2022-12-29T07:10:27;97524.88;;;13.98;56.66
5954;BME280;3002;42.642;24.812;2022-12-29T07:12:53;97510.72;;;14.11;56.40
5954;BME280;3002;42.642;24.812;2022-12-29T07:15:18;97508.81;;;15.13;54.08
5954;BME280;3002;42.642;24.812;2022-12-29T07:17:44;97491.13;;;15.77;51.23
5954;BME280;3002;42.642;24.812;2022-12-29T07:20:10;97518.81;;;15.12;51.88
5954;BME280;3002;42.642;24.812;2022-12-29T07:22:35;97477.13;;;15.89;50.42
5954;BME280;3002;42.642;24.812;2022-12-29T07:25:01;97482.38;;;15.99;49.71
5954;BME280;3002;42.642;24.812;2022-12-29T07:27:27;97510.53;;;15.98;49.36
5954;BME280;3002;42.642;24.812;2022-12-29T07:29:53;97514.47;;;16.52;48.42
5954;BME280;3002;42.642;24.812;2022-12-29T07:32:18;97483.25;;;16.54;48.36
5954;BME280;3002;42.642;24.812;2022-12-29T07:34:44;97509.53;;;16.40;48.74
5954;BME280;3002;42.642;24.812;2022-12-29T07:37:12;97501.94;;;15.77;49.96
5954;BME280;3002;42.642;24.812;2022-12-29T07:39:39;97500.19;;;15.86;49.12
5954;BME280;3002;42.642;24.812;2022-12-29T07:42:04;97516.22;;;16.43;49.54
5954;BME280;3002;42.642;24.812;2022-12-29T07:44:30;97501.78;;;16.20;48.75
5954;BME280;3002;42.642;24.812;2022-12-29T07:46:55;97516.84;;;15.56;50.35
5954;BME280;3002;42.642;24.812;2022-12-29T07:49:21;97502.16;;;15.81;49.56
5954;BME280;3002;42.642;24.812;2022-12-29T07:51:46;97507.88;;;15.79;49.58
5954;BME280;3002;42.642;24.812;2022-12-29T07:54:12;97499.94;;;16.01;49.48
5954;BME280;3002;42.642;24.812;2022-12-29T07:56:37;97499.19;;;15.25;52.33
5954;BME280;3002;42.642;24.812;2022-12-29T07:59:03;97490.31;;;14.29;53.13
5954;BME280;3002;42.642;24.812;2022-12-29T08:01:29;97511.59;;;15.64;50.98
5954;BME280;3002;42.642;24.812;2022-12-29T08:03:54;97490.63;;;15.56;50.67
5954;BME280;3002;42.642;24.812;2022-12-29T08:06:20;97475.38;;;17.35;46.73
5954;BME280;3002;42.642;24.812;2022-12-29T08:08:45;97509.44;;;16.59;48.94
5954;BME280;3002;42.642;24.812;2022-12-29T08:11:11;97514.47;;;17.57;46.48
5954;BME280;3002;42.642;24.812;2022-12-29T08:13:36;97522.47;;;18.52;44.52
5954;BME280;3002;42.642;24.812;2022-12-29T08:16:02;97499.63;;;16.63;46.99
5954;BME280;3002;42.642;24.812;2022-12-29T13:07:46;97284.00;;;23.48;34.64
5954;BME280;3002;42.642;24.812;2022-12-29T13:10:40;97287.81;;;22.88;34.81
5954;BME280;3002;42.642;24.812;2022-12-29T13:15:47;97281.22;;;19.14;41.22
5954;BME280;3002;42.642;24.812;2022-12-29T13:18:27;97288.44;;;21.71;37.87
5954;BME280;3002;42.642;24.812;2022-12-29T13:24:17;97262.25;;;21.95;37.27
5954;BME280;3002;42.642;24.812;2022-12-29T13:27:03;97263.97;;;21.99;37.20
5954;BME280;3002;42.642;24.812;2022-12-29T13:29:56;97276.38;;;21.84;37.85
5954;BME280;3002;42.642;24.812;2022-12-29T13:32:41;97283.69;;;22.94;36.38
5954;BME280;3002;42.642;24.812;2022-12-29T13:38:03;97279.88;;;20.94;40.52
5954;BME280;3002;42.642;24.812;2022-12-29T13:40:38;97284.91;;;21.04;40.33
5954;BME280;3002;42.642;24.812;2022-12-29T13:43:06;97265.06;;;20.62;41.07
5954;BME280;3002;42.642;24.812;2022-12-29T13:45:33;97281.66;;;21.44;39.49
5954;BME280;3002;42.642;24.812;2022-12-29T13:50:58;97291.19;;;21.38;39.97
5954;BME280;3002;42.642;24.812;2022-12-29T13:53:54;97287.28;;;21.60;39.04
5954;BME280;3002;42.642;24.812;2022-12-29T14:00:04;97275.31;;;18.60;46.23
5954;BME280;3002;42.642;24.812;2022-12-29T14:08:04;97283.44;;;21.85;38.79
5954;BME280;3002;42.642;24.812;2022-12-29T14:10:38;97302.00;;;21.14;39.98
5954;BME280;3002;42.642;24.812;2022-12-29T14:13:15;97302.13;;;20.25;43.76
5954;BME280;3002;42.642;24.812;2022-12-29T14:15:44;97303.28;;;20.74;41.53
5954;BME280;3002;42.642;24.812;2022-12-29T14:18:24;97309.13;;;20.35;42.69
5954;BME280;3002;42.642;24.812;2022-12-29T14:23:39;97304.41;;;20.52;40.77
5954;BME280;3002;42.642;24.812;2022-12-29T14:28:39;97312.84;;;18.50;45.37
5954;BME280;3002;42.642;24.812;2022-12-29T14:31:33;97299.50;;;17.43;47.34
5954;BME280;3002;42.642;24.812;2022-12-29T14:39:38;97307.84;;;15.74;53.08
5954;BME280;3002;42.642;24.812;2022-12-29T14:47:43;97306.94;;;15.32;57.29
5954;BME280;3002;42.642;24.812;2022-12-29T14:50:15;97295.94;;;14.77;58.82
5954;BME280;3002;42.642;24.812;2022-12-29T14:52:58;97310.22;;;14.40;62.20
5954;BME280;3002;42.642;24.812;2022-12-29T14:55:40;97316.47;;;14.35;62.61
5954;BME280;3002;42.642;24.812;2022-12-29T15:00:38;97303.59;;;13.60;63.20
5954;BME280;3002;42.642;24.812;2022-12-29T15:05:48;97326.00;;;12.93;69.14
5954;BME280;3002;42.642;24.812;2022-12-29T15:08:28;97330.28;;;12.94;67.56
5954;BME280;3002;42.642;24.812;2022-12-29T15:13:40;97324.81;;;12.25;76.71
5954;BME280;3002;42.642;24.812;2022-12-29T15:16:26;97327.16;;;12.42;77.46
5954;BME280;3002;42.642;24.812;2022-12-29T15:18:54;97328.06;;;12.17;79.63
5954;BME280;3002;42.642;24.812;2022-12-29T15:21:25;97310.38;;;12.06;78.50
5954;BME280;3002;42.642;24.812;2022-12-29T15:23:52;97321.78;;;11.57;82.99
5954;BME280;3002;42.642;24.812;2022-12-29T15:26:17;97327.13;;;11.67;77.77
5954;BME280;3002;42.642;24.812;2022-12-29T15:28:49;97307.50;;;11.77;76.69
5954;BME280;3002;42.642;24.812;2022-12-29T15:31:21;97331.63;;;11.97;77.36
5954;BME280;3002;42.642;24.812;2022-12-29T15:33:53;97337.81;;;11.93;76.30
5954;BME280;3002;42.642;24.812;2022-12-29T15:36:22;97338.38;;;11.90;76.57
5954;BME280;3002;42.642;24.812;2022-12-29T15:38:48;97334.94;;;11.59;76.73
5954;BME280;3002;42.642;24.812;2022-12-29T15:46:39;97297.41;;;10.82;88.46
5954;BME280;3002;42.642;24.812;2022-12-29T15:49:13;97340.63;;;10.86;92.19
5954;BME280;3002;42.642;24.812;2022-12-29T15:51:40;97308.38;;;10.60;93.25
5954;BME280;3002;42.642;24.812;2022-12-29T15:54:12;97325.03;;;10.67;92.32
5954;BME280;3002;42.642;24.812;2022-12-29T15:56:40;97346.22;;;10.79;90.71
5954;BME280;3002;42.642;24.812;2022-12-29T15:59:22;97336.28;;;10.59;92.12
5954;BME280;3002;42.642;24.812;2022-12-29T16:01:48;97312.41;;;10.58;85.06
5954;BME280;3002;42.642;24.812;2022-12-29T16:04:14;97318.31;;;10.44;88.15
5954;BME280;3002;42.642;24.812;2022-12-29T16:06:45;97354.00;;;10.70;85.79
5954;BME280;3002;42.642;24.812;2022-12-29T16:09:29;97344.38;;;10.80;87.17
5954;BME280;3002;42.642;24.812;2022-12-29T16:12:13;97346.25;;;10.89;87.17
5954;BME280;3002;42.642;24.812;2022-12-29T16:14:49;97355.66;;;11.02;85.32
5954;BME280;3002;42.642;24.812;2022-12-29T16:17:20;97348.41;;;10.92;87.08
5954;BME280;3002;42.642;24.812;2022-12-29T16:20:02;97348.69;;;10.86;84.70
5954;BME280;3002;42.642;24.812;2022-12-29T16:22:32;97326.38;;;10.85;87.02
5954;BME280;3002;42.642;24.812;2022-12-29T16:25:06;97357.25;;;10.78;85.85
5954;BME280;3002;42.642;24.812;2022-12-29T16:27:41;97360.44;;;10.69;88.34
5954;BME280;3002;42.642;24.812;2022-12-29T16:30:29;97363.88;;;10.55;91.84
5954;BME280;3002;42.642;24.812;2022-12-29T16:32:58;97355.81;;;10.34;90.45
5954;BME280;3002;42.642;24.812;2022-12-29T16:41:00;97343.03;;;9.99;94.39
5954;BME280;3002;42.642;24.812;2022-12-29T16:43:34;97358.19;;;10.26;95.14
5954;BME280;3002;42.642;24.812;2022-12-29T16:48:32;97361.88;;;10.14;88.40
5954;BME280;3002;42.642;24.812;2022-12-29T16:51:12;97364.91;;;10.33;86.62
5954;BME280;3002;42.642;24.812;2022-12-29T16:53:40;97362.00;;;10.45;85.28
5954;BME280;3002;42.642;24.812;2022-12-29T16:56:15;97364.16;;;10.53;84.18
5954;BME280;3002;42.642;24.812;2022-12-29T16:58:46;97361.28;;;10.02;95.39
5954;BME280;3002;42.642;24.812;2022-12-29T17:01:12;97370.91;;;9.98;90.40
5954;BME280;3002;42.642;24.812;2022-12-29T17:03:42;97376.41;;;10.24;87.53
5954;BME280;3002;42.642;24.812;2022-12-29T17:06:21;97360.22;;;10.03;92.20
5954;BME280;3002;42.642;24.812;2022-12-29T17:08:47;97355.88;;;9.92;92.42
5954;BME280;3002;42.642;24.812;2022-12-29T17:11:30;97375.44;;;9.92;90.66
5954;BME280;3002;42.642;24.812;2022-12-29T17:17:00;97378.31;;;9.81;91.28
5954;BME280;3002;42.642;24.812;2022-12-29T17:19:36;97378.44;;;9.22;100.00
5954;BME280;3002;42.642;24.812;2022-12-29T17:22:04;97345.25;;;9.23;94.75
5954;BME280;3002;42.642;24.812;2022-12-29T17:24:34;97337.00;;;9.24;95.70
5954;BME280;3002;42.642;24.812;2022-12-29T17:27:01;97372.16;;;9.38;99.14
5954;BME280;3002;42.642;24.812;2022-12-29T17:29:34;97361.97;;;9.40;97.88
5954;BME280;3002;42.642;24.812;2022-12-29T17:32:02;97364.72;;;9.50;98.66
5954;BME280;3002;42.642;24.812;2022-12-29T17:34:29;97370.38;;;9.54;96.41
5954;BME280;3002;42.642;24.812;2022-12-29T17:36:54;97356.38;;;9.42;94.74
5954;BME280;3002;42.642;24.812;2022-12-29T17:39:20;97343.50;;;9.38;94.50
5954;BME280;3002;42.642;24.812;2022-12-29T17:41:46;97350.50;;;9.45;96.24
5954;BME280;3002;42.642;24.812;2022-12-29T17:44:19;97348.56;;;9.35;95.54
5954;BME280;3002;42.642;24.812;2022-12-29T17:46:46;97336.69;;;9.21;92.56
5954;BME280;3002;42.642;24.812;2022-12-29T17:49:13;97352.75;;;9.63;90.14
5954;BME280;3002;42.642;24.812;2022-12-29T17:51:41;97351.38;;;9.55;90.35
5954;BME280;3002;42.642;24.812;2022-12-29T17:54:18;97346.03;;;9.55;89.51
5954;BME280;3002;42.642;24.812;2022-12-29T17:56:44;97355.28;;;9.37;95.04
5954;BME280;3002;42.642;24.812;2022-12-29T17:59:11;97320.41;;;9.27;89.22
5954;BME280;3002;42.642;24.812;2022-12-29T18:01:38;97352.25;;;9.24;90.83
5954;BME280;3002;42.642;24.812;2022-12-29T18:04:04;97347.25;;;9.00;92.35
5954;BME280;3002;42.642;24.812;2022-12-29T18:06:31;97364.25;;;9.21;96.42
5954;BME280;3002;42.642;24.812;2022-12-29T18:08:56;97353.66;;;9.36;89.66
5954;BME280;3002;42.642;24.812;2022-12-29T18:11:25;97378.66;;;9.52;90.06
5954;BME280;3002;42.642;24.812;2022-12-29T18:13:52;97371.38;;;9.43;92.45
5954;BME280;3002;42.642;24.812;2022-12-29T18:16:18;97355.75;;;8.97;95.12
5954;BME280;3002;42.642;24.812;2022-12-29T18:18:49;97363.03;;;9.02;100.00
5954;BME280;3002;42.642;24.812;2022-12-29T18:21:43;97360.34;;;9.02;98.50
5954;BME280;3002;42.642;24.812;2022-12-29T18:24:14;97349.34;;;8.98;94.31
5954;BME280;3002;42.642;24.812;2022-12-29T18:26:40;97297.03;;;8.80;91.38
5954;BME280;3002;42.642;24.812;2022-12-29T18:29:06;97332.75;;;8.96;92.25
5954;BME280;3002;42.642;24.812;2022-12-29T18:31:32;97348.81;;;8.96;97.09
5954;BME280;3002;42.642;24.812;2022-12-29T18:34:00;97326.44;;;8.80;96.42
5954;BME280;3002;42.642;24.812;2022-12-29T18:36:27;97294.00;;;8.67;92.78
5954;BME280;3002;42.642;24.812;2022-12-29T18:38:53;97300.84;;;8.57;100.00
5954;BME280;3002;42.642;24.812;2022-12-29T18:43:49;97309.53;;;8.43;100.00
5954;BME280;3002;42.642;24.812;2022-12-29T18:46:15;97343.44;;;8.64;100.00
5954;BME280;3002;42.642;24.812;2022-12-29T18:48:42;97346.50;;;8.51;100.00
5954;BME280;3002;42.642;24.812;2022-12-29T18:51:21;97331.56;;;8.55;97.79
5954;BME280;3002;42.642;24.812;2022-12-29T18:54:02;97348.38;;;8.77;98.78
5954;BME280;3002;42.642;24.812;2022-12-29T18:56:28;97305.31;;;8.25;100.00
5954;BME280;3002;42.642;24.812;2022-12-29T18:58:53;97346.53;;;8.56;100.00
5954;BME280;3002;42.642;24.812;2022-12-29T19:01:24;97338.31;;;8.63;100.00
5954;BME280;3002;42.642;24.812;2022-12-29T19:03:52;97329.59;;;8.45;97.77
5954;BME280;3002;42.642;24.812;2022-12-29T19:06:19;97323.22;;;8.24;98.87
5954;BME280;3002;42.642;24.812;2022-12-29T19:08:45;97319.88;;;8.12;98.73
5954;BME280;3002;42.642;24.812;2022-12-29T19:11:11;97329.34;;;8.25;100.00
5954;BME280;3002;42.642;24.812;2022-12-29T19:13:37;97306.44;;;7.85;100.00
5954;BME280;3002;42.642;24.812;2022-12-29T19:16:05;97365.97;;;8.46;99.89
5954;BME280;3002;42.642;24.812;2022-12-29T19:18:33;97342.41;;;8.43;98.66
5954;BME280;3002;42.642;24.812;2022-12-29T19:20:58;97367.13;;;8.55;97.85
5954;BME280;3002;42.642;24.812;2022-12-29T19:23:27;97355.94;;;8.58;96.39
5954;BME280;3002;42.642;24.812;2022-12-29T19:25:53;97363.91;;;8.53;98.59
5954;BME280;3002;42.642;24.812;2022-12-29T19:28:26;97310.25;;;8.11;99.07
5954;BME280;3002;42.642;24.812;2022-12-29T19:30:54;97357.84;;;8.36;98.47
5954;BME280;3002;42.642;24.812;2022-12-29T19:33:22;97347.59;;;8.06;100.00
5954;BME280;3002;42.642;24.812;2022-12-29T19:35:48;97348.00;;;8.20;100.00
5954;BME280;3002;42.642;24.812;2022-12-29T19:38:14;97342.22;;;8.28;100.00
5954;BME280;3002;42.642;24.812;2022-12-29T19:40:46;97331.03;;;8.31;99.18
5954;BME280;3002;42.642;24.812;2022-12-29T19:43:12;97350.78;;;8.30;100.00
5954;BME280;3002;42.642;24.812;2022-12-29T19:45:42;97334.75;;;8.30;100.00
5954;BME280;3002;42.642;24.812;2022-12-29T19:48:15;97327.19;;;8.22;100.00
5954;BME280;3002;42.642;24.812;2022-12-29T19:50:42;97351.19;;;8.39;100.00